createdAt,value
2023-01-11T00:01:32.240Z,100256.28
2023-01-11T00:04:36.270Z,100254.50
2023-01-11T00:07:36.235Z,100261.56
2023-01-11T00:10:37.235Z,100253.81
2023-01-11T00:13:37.231Z,100225.31
2023-01-11T00:16:37.238Z,100242.50
2023-01-11T00:19:37.239Z,100237.28
2023-01-11T00:22:37.250Z,100268.91
2023-01-11T00:25:37.239Z,100274.84
2023-01-11T00:28:37.245Z,100259.81
2023-01-11T00:31:37.361Z,100257.56
2023-01-11T00:34:37.231Z,100259.34
2023-01-11T00:37:37.254Z,100271.03
2023-01-11T00:40:37.229Z,100270.94
2023-01-11T00:43:55.253Z,100273.53
2023-01-11T00:47:13.230Z,100277.87
2023-01-11T00:50:13.217Z,100295.22
2023-01-11T00:53:13.230Z,100304.63
2023-01-11T00:56:13.234Z,100303.12
2023-01-11T00:59:13.275Z,100326.25
2023-01-11T01:02:13.235Z,100325.19
2023-01-11T01:05:13.246Z,100312.59
2023-01-11T01:08:13.215Z,100338.87
2023-01-11T01:11:13.241Z,100343.22
2023-01-11T01:14:31.218Z,100348.41
2023-01-11T01:17:31.241Z,100340.53
2023-01-11T01:20:31.223Z,100346.56
2023-01-11T01:23:31.238Z,100346.88
2023-01-11T01:26:31.236Z,100342.44
2023-01-11T01:29:31.246Z,100347.56
2023-01-11T01:32:31.261Z,100350.16
2023-01-11T01:35:31.212Z,100344.81
2023-01-11T01:38:32.227Z,100347.72
2023-01-11T01:41:32.199Z,100349.06
2023-01-11T01:45:09.231Z,100347.41
2023-01-11T01:48:14.237Z,100333.47
2023-01-11T01:51:14.240Z,100321.75
2023-01-11T01:54:18.229Z,100312.75
2023-01-11T01:57:32.230Z,100308.06
2023-01-11T02:00:32.223Z,100309.84
2023-01-11T02:03:35.234Z,100315.47
2023-01-11T02:06:35.251Z,100320.53
2023-01-11T02:09:45.256Z,100315.84
2023-01-11T02:12:52.222Z,100307.47
2023-01-11T02:15:52.247Z,100293.94
2023-01-11T02:18:52.231Z,100308.75
2023-01-11T02:22:14.247Z,100298.34
2023-01-11T02:25:14.209Z,100292.25
2023-01-11T02:28:35.265Z,100299.59
2023-01-11T02:31:47.237Z,100296.22
2023-01-11T02:34:54.243Z,100308.22
2023-01-11T02:38:20.229Z,100302.47
2023-01-11T02:42:05.248Z,100339.88
2023-01-11T02:45:18.220Z,100352.50
2023-01-11T02:48:33.242Z,100357.47
2023-01-11T02:51:41.243Z,100366.34
2023-01-11T02:54:42.236Z,100367.78
2023-01-11T02:57:39.214Z,100355.44
2023-01-11T03:00:39.242Z,100347.50
2023-01-11T03:03:40.229Z,100363.00
2023-01-11T03:06:42.245Z,100362.91
2023-01-11T03:09:51.234Z,100353.22
2023-01-11T03:13:20.225Z,100364.28
2023-01-11T03:16:34.234Z,100359.81
2023-01-11T03:20:00.281Z,100370.03
2023-01-11T03:23:07.241Z,100364.91
2023-01-11T03:26:15.232Z,100362.25
2023-01-11T03:29:42.207Z,100331.44
2023-01-11T03:32:49.217Z,100344.22
2023-01-11T03:36:06.241Z,100363.69
2023-01-11T03:39:43.244Z,100373.16
2023-01-11T03:43:04.237Z,100370.56
2023-01-11T03:46:08.247Z,100383.47
2023-01-11T03:49:15.226Z,100390.28
2023-01-11T03:52:18.233Z,100391.03
2023-01-11T03:55:20.229Z,100397.94
2023-01-11T03:58:20.229Z,100391.12
2023-01-11T04:01:20.222Z,100367.91
2023-01-11T04:04:20.246Z,100367.25
2023-01-11T04:07:20.233Z,100348.16
2023-01-11T04:10:21.220Z,100369.66
2023-01-11T04:13:21.236Z,100388.72
2023-01-11T04:16:21.250Z,100377.88
2023-01-11T04:19:21.244Z,100393.16
2023-01-11T04:22:21.228Z,100403.50
2023-01-11T04:25:21.237Z,100385.91
2023-01-11T04:28:21.225Z,100404.09
2023-01-11T04:31:21.270Z,100393.31
2023-01-11T04:34:21.229Z,100421.16
2023-01-11T04:37:21.230Z,100424.75
2023-01-11T04:40:21.228Z,100410.34
2023-01-11T04:43:21.217Z,100426.25
2023-01-11T04:46:21.237Z,100423.66
2023-01-11T04:49:21.240Z,100428.09
2023-01-11T04:52:21.270Z,100422.00
2023-01-11T04:55:21.219Z,100425.50
2023-01-11T04:58:21.245Z,100413.22
2023-01-11T05:01:23.349Z,100429.53
2023-01-11T05:04:23.291Z,100427.00
2023-01-11T05:07:23.268Z,100415.09
2023-01-11T05:10:23.248Z,100416.00
2023-01-11T05:13:23.303Z,100433.00
2023-01-11T05:16:41.299Z,100438.09
2023-01-11T05:19:41.300Z,100454.53
2023-01-11T05:22:41.279Z,100452.03
2023-01-11T05:25:41.302Z,100448.62
2023-01-11T05:28:41.294Z,100435.59
2023-01-11T05:31:41.372Z,100410.44
2023-01-11T05:34:41.266Z,100437.41
2023-01-11T05:37:41.334Z,100444.44
2023-01-11T05:40:41.253Z,100454.84
2023-01-11T05:44:02.265Z,100458.38
2023-01-11T05:47:02.270Z,100460.97
2023-01-11T05:50:02.247Z,100450.91
2023-01-11T05:53:02.245Z,100463.69
2023-01-11T05:56:09.230Z,100480.09
2023-01-11T05:59:10.268Z,100447.09
2023-01-11T06:02:10.370Z,100472.41
2023-01-11T06:05:10.296Z,100480.34
2023-01-11T06:08:10.291Z,100475.22
2023-01-11T06:11:10.314Z,100495.69
2023-01-11T06:14:10.284Z,100498.28
2023-01-11T06:17:10.305Z,100499.22
2023-01-11T06:20:10.295Z,100491.50
2023-01-11T06:23:10.271Z,100492.34
2023-01-11T06:26:10.263Z,100487.13
2023-01-11T06:29:10.310Z,100471.22
2023-01-11T06:32:11.318Z,100488.84
2023-01-11T06:35:11.239Z,100484.00
2023-01-11T06:38:11.312Z,100489.13
2023-01-11T06:41:17.256Z,100470.47
2023-01-11T06:44:39.509Z,100503.44
2023-01-11T06:47:39.458Z,100528.50
2023-01-11T06:50:46.890Z,100478.03
2023-01-11T06:56:55.302Z,100505.19
2023-01-11T06:59:57.281Z,100503.56
2023-01-11T07:02:58.335Z,100488.22
2023-01-11T07:05:59.251Z,100475.22
2023-01-11T07:08:59.266Z,100496.41
2023-01-11T07:12:02.131Z,100519.34
2023-01-11T07:15:02.316Z,100495.69
2023-01-11T07:18:13.376Z,100519.13
2023-01-11T07:21:13.253Z,100532.03
2023-01-11T07:24:13.614Z,100537.25
2023-01-11T07:27:13.222Z,100529.50
2023-01-11T07:30:13.315Z,100529.38
2023-01-11T07:33:14.438Z,100538.41
2023-01-11T07:36:14.266Z,100508.03
2023-01-11T07:39:14.278Z,100538.09
2023-01-11T07:42:32.363Z,100529.78
2023-01-11T07:45:44.605Z,100544.75
2023-01-11T07:48:52.314Z,100497.94
2023-01-11T07:51:52.244Z,100553.09
2023-01-11T07:54:52.268Z,100549.50
2023-01-11T07:57:54.293Z,100549.06
2023-01-11T08:00:54.293Z,100513.56
2023-01-11T08:03:54.410Z,100545.84
2023-01-11T08:06:54.273Z,100545.84
2023-01-11T08:09:54.355Z,100542.94
2023-01-11T08:13:19.353Z,100548.81
2023-01-11T08:16:19.358Z,100548.66
2023-01-11T08:19:19.280Z,100559.13
2023-01-11T08:22:19.307Z,100545.75
2023-01-11T08:25:19.362Z,100551.75
2023-01-11T08:28:20.262Z,100567.16
2023-01-11T08:31:23.321Z,100558.00
2023-01-11T08:34:24.306Z,100573.22
2023-01-11T08:38:00.278Z,100571.66
2023-01-11T08:41:13.530Z,100527.00
2023-01-11T08:44:22.290Z,100585.16
2023-01-11T08:47:32.381Z,100525.22
2023-01-11T08:50:32.374Z,100564.31
2023-01-11T08:53:35.294Z,100586.78
2023-01-11T08:56:44.289Z,100587.91
2023-01-11T08:59:49.910Z,100509.78
2023-01-11T09:02:50.307Z,100553.69
2023-01-11T09:05:52.298Z,100568.53
2023-01-11T09:09:02.627Z,100587.97
2023-01-11T09:12:05.904Z,100557.41
2023-01-11T09:15:12.466Z,100597.84
2023-01-11T09:18:27.384Z,100580.53
2023-01-11T09:21:35.390Z,100570.72
2023-01-11T09:24:35.439Z,100533.75
2023-01-11T09:30:45.363Z,100600.75
2023-01-11T09:37:15.317Z,100581.81
2023-01-11T09:40:16.351Z,100597.72
2023-01-11T09:46:58.260Z,100558.53
2023-01-11T09:53:39.724Z,100568.94
2023-01-11T09:56:46.413Z,100539.31
2023-01-11T10:00:19.085Z,100451.78
2023-01-11T10:03:34.611Z,100539.94
2023-01-11T10:06:49.351Z,100579.50
2023-01-11T10:18:21.259Z,100451.41
2023-01-11T10:18:39.240Z,100472.47
2023-01-11T10:21:11.149Z,100583.66
2023-01-11T10:24:43.459Z,100556.91
2023-01-11T10:27:53.286Z,100569.31
2023-01-11T10:31:04.463Z,100561.69
2023-01-11T10:34:27.538Z,100542.91
2023-01-11T10:38:03.330Z,100544.00
2023-01-11T10:41:11.283Z,100537.63
2023-01-11T10:44:59.138Z,100560.22
2023-01-11T10:48:09.374Z,100558.00
2023-01-11T10:51:49.175Z,100550.91
2023-01-11T10:54:52.434Z,100565.19
2023-01-11T10:58:07.379Z,100535.13
2023-01-11T11:01:39.320Z,100559.03
2023-01-11T11:04:49.290Z,100543.72
2023-01-11T11:08:21.573Z,100554.28
2023-01-11T11:11:25.534Z,100553.19
2023-01-11T11:14:36.327Z,100550.81
2023-01-11T11:17:45.306Z,100548.06
2023-01-11T11:20:47.383Z,100546.91
2023-01-11T11:23:48.286Z,100547.44
2023-01-11T11:26:51.323Z,100531.66
2023-01-11T11:29:57.327Z,100548.87
2023-01-11T11:33:07.316Z,100550.00
2023-01-11T11:36:14.334Z,100544.03
2023-01-11T11:39:35.367Z,100548.25
2023-01-11T11:42:39.235Z,100544.84
2023-01-11T11:45:35.337Z,100544.63
2023-01-11T11:48:36.346Z,100535.69
2023-01-11T11:51:45.342Z,100531.03
2023-01-11T11:54:50.330Z,100524.56
2023-01-11T11:57:55.305Z,100534.97
2023-01-11T12:01:02.320Z,100536.66
2023-01-11T12:04:03.349Z,100534.34
2023-01-11T12:07:22.278Z,100543.56
2023-01-11T12:10:27.293Z,100515.97
2023-01-11T12:13:42.280Z,100529.47
2023-01-11T12:16:49.388Z,100511.00
2023-01-11T12:19:55.267Z,100538.22
2023-01-11T12:22:57.899Z,100521.25
2023-01-11T12:26:03.294Z,100502.31
2023-01-11T12:29:28.291Z,100538.97
2023-01-11T12:32:45.288Z,100541.81
2023-01-11T12:36:06.648Z,100528.37
2023-01-11T12:39:11.376Z,100512.78
2023-01-11T12:42:14.328Z,100529.25
2023-01-11T12:45:40.290Z,100535.28
2023-01-11T12:49:06.874Z,100512.81
2023-01-11T12:52:33.323Z,100520.16
2023-01-11T12:55:38.412Z,100523.53
2023-01-11T12:59:09.333Z,100529.31
2023-01-11T13:02:13.440Z,100528.63
2023-01-11T13:05:56.438Z,100513.19
2023-01-11T13:09:31.340Z,100503.19
2023-01-11T13:12:43.643Z,100519.25
2023-01-11T13:15:55.926Z,100519.44
2023-01-11T13:19:07.367Z,100465.28
2023-01-11T13:22:15.416Z,100507.28
2023-01-11T13:25:29.330Z,100505.44
2023-01-11T13:28:39.348Z,100517.63
2023-01-11T13:31:39.287Z,100521.19
2023-01-11T13:34:43.298Z,100518.41
2023-01-11T13:37:51.312Z,100513.94
2023-01-11T13:41:02.307Z,100524.13
2023-01-11T13:44:40.281Z,100512.06
2023-01-11T13:47:55.769Z,100526.25
2023-01-11T13:51:08.334Z,100500.75
2023-01-11T13:54:30.511Z,100519.28
2023-01-11T13:57:41.329Z,100534.03
2023-01-11T14:01:03.345Z,100526.06
2023-01-11T14:04:07.287Z,100540.50
2023-01-11T14:07:19.304Z,100530.41
2023-01-11T14:10:43.324Z,100532.41
2023-01-11T14:14:20.306Z,100550.81
2023-01-11T14:17:19.398Z,100555.63
2023-01-11T14:20:46.461Z,100547.81
2023-01-11T14:24:01.505Z,100547.91
2023-01-11T14:27:12.368Z,100563.25
2023-01-11T14:30:37.341Z,100564.75
2023-01-11T14:34:08.295Z,100557.84
2023-01-11T14:37:30.335Z,100556.84
2023-01-11T14:40:50.304Z,100575.22
2023-01-11T14:44:13.286Z,100584.19
2023-01-11T14:47:33.271Z,100560.50
2023-01-11T14:51:09.337Z,100578.56
2023-01-11T14:54:17.321Z,100578.94
2023-01-11T14:57:17.367Z,100570.97
2023-01-11T15:00:37.335Z,100574.31
2023-01-11T15:03:48.311Z,100605.91
2023-01-11T15:07:05.314Z,100587.28
2023-01-11T15:10:06.378Z,100574.31
2023-01-11T15:13:09.293Z,100565.75
2023-01-11T15:16:42.360Z,100584.94
2023-01-11T15:19:47.297Z,100585.34
2023-01-11T15:22:47.343Z,100579.84
2023-01-11T15:25:48.323Z,100585.66
2023-01-11T15:29:04.312Z,100568.75
2023-01-11T15:32:07.305Z,100586.22
2023-01-11T15:35:07.307Z,100588.06
2023-01-11T15:38:33.288Z,100586.41
2023-01-11T15:42:00.304Z,100581.97
2023-01-11T15:45:40.323Z,100568.94
2023-01-11T15:48:49.345Z,100572.31
2023-01-11T15:52:27.298Z,100571.31
2023-01-11T15:55:39.495Z,100577.88
2023-01-11T15:59:20.285Z,100578.41
2023-01-11T16:02:35.292Z,100570.25
2023-01-11T16:05:40.271Z,100578.63
2023-01-11T16:08:47.355Z,100572.00
2023-01-11T16:12:03.293Z,100571.41
2023-01-11T16:15:20.349Z,100571.00
2023-01-11T16:18:41.288Z,100575.75
2023-01-11T16:21:49.317Z,100582.16
2023-01-11T16:24:54.320Z,100579.69
2023-01-11T16:27:54.326Z,100582.69
2023-01-11T16:30:54.456Z,100580.34
2023-01-11T16:33:54.319Z,100555.25
2023-01-11T16:36:55.297Z,100553.81
2023-01-11T16:39:55.284Z,100566.78
2023-01-11T16:43:05.279Z,100574.03
2023-01-11T16:46:06.353Z,100564.06
2023-01-11T16:49:22.336Z,100577.03
2023-01-11T16:52:44.335Z,100565.81
2023-01-11T16:55:47.340Z,100583.25
2023-01-11T16:58:50.317Z,100584.22
2023-01-11T17:02:05.335Z,100581.75
2023-01-11T17:05:05.298Z,100596.75
2023-01-11T17:08:05.343Z,100596.87
2023-01-11T17:11:10.288Z,100598.03
2023-01-11T17:14:35.340Z,100576.25
2023-01-11T17:17:35.438Z,100605.06
2023-01-11T17:20:38.323Z,100610.25
2023-01-11T17:23:38.277Z,100620.22
2023-01-11T17:26:40.349Z,100616.06
2023-01-11T17:29:42.271Z,100606.41
2023-01-11T17:32:50.335Z,100604.66
2023-01-11T17:35:52.326Z,100619.56
2023-01-11T17:38:53.748Z,100596.22
2023-01-11T17:42:14.324Z,100617.78
2023-01-11T17:45:21.403Z,100623.47
2023-01-11T17:48:29.325Z,100624.69
2023-01-11T17:51:40.269Z,100633.78
2023-01-11T17:54:40.324Z,100634.88
2023-01-11T17:57:40.286Z,100633.94
2023-01-11T18:00:43.328Z,100640.44
2023-01-11T18:03:43.296Z,100630.25
2023-01-11T18:06:51.300Z,100636.69
2023-01-11T18:09:58.292Z,100642.97
2023-01-11T18:12:58.310Z,100647.19
2023-01-11T18:16:00.320Z,100638.44
2023-01-11T18:19:01.354Z,100644.44
2023-01-11T18:22:06.297Z,100653.50
2023-01-11T18:25:07.291Z,100653.47
2023-01-11T18:28:39.271Z,100658.63
2023-01-11T18:31:39.298Z,100666.03
2023-01-11T18:34:39.295Z,100660.00
2023-01-11T18:37:39.312Z,100664.72
2023-01-11T18:40:40.327Z,100672.44
2023-01-11T18:43:42.313Z,100663.66
2023-01-11T18:46:42.317Z,100671.94
2023-01-11T18:49:42.296Z,100668.34
2023-01-11T18:52:43.308Z,100670.19
2023-01-11T18:55:43.323Z,100672.91
2023-01-11T18:58:43.324Z,100682.62
2023-01-11T19:01:58.635Z,100689.56
2023-01-11T19:05:05.305Z,100688.00
2023-01-11T19:08:05.273Z,100673.88
2023-01-11T19:11:05.331Z,100672.09
2023-01-11T19:14:05.270Z,100672.44
2023-01-11T19:17:05.321Z,100672.19
2023-01-11T19:20:05.337Z,100676.97
2023-01-11T19:23:05.298Z,100680.78
2023-01-11T19:26:12.311Z,100680.50
2023-01-11T19:29:12.268Z,100688.81
2023-01-11T19:32:12.270Z,100685.19
2023-01-11T19:35:12.305Z,100675.13
2023-01-11T19:38:12.293Z,100692.53
2023-01-11T19:41:17.319Z,100705.09
2023-01-11T19:44:17.286Z,100714.78
2023-01-11T19:47:17.369Z,100704.78
2023-01-11T19:50:18.282Z,100705.97
2023-01-11T19:53:18.323Z,100714.09
2023-01-11T19:56:20.289Z,100708.28
2023-01-11T19:59:20.328Z,100717.97
2023-01-11T20:02:20.306Z,100695.44
2023-01-11T20:05:20.303Z,100695.19
2023-01-11T20:08:20.315Z,100705.22
2023-01-11T20:11:22.281Z,100710.28
2023-01-11T20:14:22.301Z,100714.91
2023-01-11T20:17:27.290Z,100720.00
2023-01-11T20:20:27.273Z,100721.81
2023-01-11T20:23:20.331Z,100724.47
2023-01-11T20:26:17.192Z,100734.63
2023-01-11T20:29:04.327Z,100731.91
2023-01-11T20:31:50.267Z,100738.78
2023-01-11T20:34:50.277Z,100738.09
2023-01-11T20:37:50.312Z,100746.03
2023-01-11T20:40:52.265Z,100727.59
2023-01-11T20:43:53.334Z,100739.56
2023-01-11T20:46:53.319Z,100741.56
2023-01-11T20:49:53.341Z,100739.09
2023-01-11T20:52:53.271Z,100734.88
2023-01-11T20:55:53.287Z,100742.75
2023-01-11T20:58:58.316Z,100740.25
2023-01-11T21:01:58.367Z,100737.09
2023-01-11T21:04:58.261Z,100727.84
2023-01-11T21:07:58.291Z,100734.97
2023-01-11T21:10:58.338Z,100730.84
2023-01-11T21:14:01.304Z,100733.62
2023-01-11T21:17:01.298Z,100727.38
2023-01-11T21:20:01.302Z,100732.22
2023-01-11T21:23:01.281Z,100729.06
2023-01-11T21:26:01.295Z,100734.88
2023-01-11T21:29:07.337Z,100729.03
2023-01-11T21:32:07.280Z,100714.09
2023-01-11T21:35:07.329Z,100736.19
2023-01-11T21:38:07.273Z,100733.91
2023-01-11T21:41:07.282Z,100747.97
2023-01-11T21:44:07.263Z,100748.25
2023-01-11T21:47:07.286Z,100743.28
2023-01-11T21:50:07.281Z,100756.75
2023-01-11T21:53:07.266Z,100761.12
2023-01-11T21:56:07.294Z,100758.44
2023-01-11T21:59:07.302Z,100764.53
2023-01-11T22:02:07.310Z,100768.75
2023-01-11T22:05:07.261Z,100766.19
2023-01-11T22:08:09.320Z,100765.34
2023-01-11T22:11:12.314Z,100752.94
2023-01-11T22:14:15.275Z,100778.59
2023-01-11T22:17:15.265Z,100781.38
2023-01-11T22:20:15.355Z,100780.75
2023-01-11T22:23:15.297Z,100776.66
2023-01-11T22:26:23.321Z,100779.41
2023-01-11T22:29:23.296Z,100774.47
2023-01-11T22:32:23.342Z,100769.41
2023-01-11T22:35:23.296Z,100777.25
2023-01-11T22:38:23.265Z,100785.06
2023-01-11T22:41:23.268Z,100779.37
2023-01-11T22:44:23.293Z,100786.13
2023-01-11T22:47:23.259Z,100775.78
2023-01-11T22:50:23.298Z,100781.97
2023-01-11T22:53:23.276Z,100784.72
2023-01-11T22:56:27.269Z,100795.22
2023-01-11T22:59:27.310Z,100796.22
2023-01-11T23:02:27.321Z,100795.31
2023-01-11T23:05:27.315Z,100798.81
2023-01-11T23:08:27.259Z,100796.25
2023-01-11T23:11:47.308Z,100788.72
2023-01-11T23:14:47.266Z,100778.47
2023-01-11T23:17:47.290Z,100797.09
2023-01-11T23:20:48.307Z,100781.78
2023-01-11T23:23:48.289Z,100795.41
2023-01-11T23:26:48.326Z,100793.72
2023-01-11T23:29:48.299Z,100783.72
2023-01-11T23:32:48.346Z,100800.56
2023-01-11T23:35:48.284Z,100794.59
2023-01-11T23:38:48.322Z,100792.09
2023-01-11T23:42:07.298Z,100789.50
2023-01-11T23:45:08.303Z,100787.09
2023-01-11T23:48:08.255Z,100810.97
2023-01-11T23:51:08.273Z,100814.47
2023-01-11T23:54:08.293Z,100817.16
2023-01-11T23:57:09.356Z,100809.47
